createdAt,value
2022-11-05T00:10:21.864Z,9.03
2022-11-05T00:13:08.849Z,9.27
2022-11-05T00:21:09.914Z,9.24
2022-11-05T00:38:17.236Z,9.21
2022-11-05T00:40:54.873Z,9.19
2022-11-05T00:48:12.379Z,9.17
2022-11-05T00:53:57.101Z,8.52
2022-11-05T01:27:22.733Z,8.26
2022-11-05T01:29:50.827Z,8.05
2022-11-05T01:32:20.455Z,8.24
2022-11-05T01:34:48.907Z,8.03
2022-11-05T01:37:24.359Z,8.16
2022-11-05T01:48:13.530Z,8.16
2022-11-05T01:50:47.343Z,8.05
2022-11-05T01:53:22.871Z,8.04
2022-11-05T01:58:48.565Z,8.28
2022-11-05T02:01:16.795Z,8.31
2022-11-05T02:03:47.255Z,8.15
2022-11-05T02:06:17.389Z,7.76
2022-11-05T02:08:58.914Z,8.13
2022-11-05T02:11:26.904Z,8.13
2022-11-05T02:19:36.935Z,8.41
2022-11-05T02:22:38.539Z,8.47
2022-11-05T02:25:28.566Z,8.51
2022-11-05T02:28:24.023Z,8.43
2022-11-05T02:31:04.366Z,8.46
2022-11-05T02:33:40.784Z,8.60
2022-11-05T02:36:24.398Z,8.78
2022-11-05T02:39:07.978Z,8.73
2022-11-05T02:41:44.296Z,8.66
2022-11-05T02:44:20.327Z,8.38
2022-11-05T02:46:57.615Z,8.77
2022-11-05T02:49:35.462Z,8.74
2022-11-05T02:52:07.762Z,8.80
2022-11-05T02:54:44.946Z,8.84
2022-11-05T02:57:13.370Z,8.71
2022-11-05T02:59:41.484Z,8.87
2022-11-05T03:02:18.915Z,8.86
2022-11-05T03:11:31.888Z,8.73
2022-11-05T03:14:45.987Z,8.57
2022-11-05T03:17:36.455Z,8.44
2022-11-05T03:20:15.231Z,8.51
2022-11-05T03:22:52.864Z,8.57
2022-11-05T03:25:27.966Z,8.26
2022-11-05T03:28:33.887Z,8.45
2022-11-05T03:31:03.781Z,8.34
2022-11-05T03:46:21.037Z,7.89
2022-11-05T03:48:55.128Z,7.79
2022-11-05T03:51:30.299Z,7.70
2022-11-05T03:54:02.054Z,7.57
2022-11-05T03:56:43.293Z,7.66
2022-11-05T03:59:35.822Z,7.72
2022-11-05T04:02:04.292Z,7.47
2022-11-05T04:07:42.844Z,7.84
2022-11-05T04:13:52.608Z,7.76
2022-11-05T04:17:12.724Z,7.64
2022-11-05T04:20:57.013Z,7.72
2022-11-05T04:23:54.021Z,7.71
2022-11-05T04:26:23.321Z,7.60
2022-11-05T04:29:08.718Z,7.60
2022-11-05T04:31:36.605Z,7.63
2022-11-05T04:34:05.738Z,7.92
2022-11-05T04:36:44.564Z,7.73
2022-11-05T04:39:13.723Z,8.01
2022-11-05T04:41:41.726Z,8.01
2022-11-05T04:44:09.737Z,7.99
2022-11-05T04:46:37.522Z,7.96
2022-11-05T04:49:05.650Z,7.74
2022-11-05T04:54:46.184Z,7.75
2022-11-05T04:57:14.118Z,7.82
2022-11-05T04:59:42.049Z,7.79
2022-11-05T05:02:09.988Z,7.89
2022-11-05T05:04:37.922Z,7.90
2022-11-05T05:07:05.825Z,7.91
2022-11-05T05:09:33.852Z,7.89
2022-11-05T05:15:56.989Z,7.86
2022-11-05T05:23:01.663Z,7.79
2022-11-05T05:47:33.575Z,7.71
2022-11-05T05:54:52.304Z,7.31
2022-11-05T05:58:09.127Z,7.14
2022-11-05T06:10:15.448Z,6.58
2022-11-05T06:17:00.510Z,6.41
2022-11-05T06:26:58.529Z,6.25
2022-11-05T06:29:30.358Z,6.40
2022-11-05T06:35:05.291Z,6.38
2022-11-05T06:37:34.119Z,6.37
2022-11-05T06:40:03.284Z,6.36
2022-11-05T06:45:27.416Z,6.35
2022-11-05T06:47:58.992Z,6.32
2022-11-05T06:53:17.918Z,6.23
2022-11-05T06:55:52.229Z,6.26
2022-11-05T06:58:20.367Z,6.22
2022-11-05T07:00:48.454Z,6.08
2022-11-05T07:03:16.890Z,6.32
2022-11-05T07:05:47.332Z,6.37
2022-11-05T07:08:15.358Z,6.41
2022-11-05T07:10:44.557Z,6.46
2022-11-05T07:18:14.394Z,6.81
2022-11-05T07:20:46.039Z,6.84
2022-11-05T07:31:55.808Z,6.86
2022-11-05T07:35:18.332Z,7.11
2022-11-05T07:42:04.668Z,7.27
2022-11-05T07:44:58.558Z,7.22
2022-11-05T07:47:26.542Z,7.36
2022-11-05T07:49:54.662Z,7.55
2022-11-05T07:52:25.504Z,7.88
2022-11-05T08:06:39.664Z,8.34
2022-11-05T08:09:07.891Z,8.40
2022-11-05T08:11:37.246Z,8.56
2022-11-05T08:14:05.101Z,9.07
2022-11-05T08:16:33.182Z,10.01
2022-11-05T08:19:01.103Z,10.61
2022-11-05T08:21:29.311Z,10.88
2022-11-05T08:23:59.420Z,10.96
2022-11-05T08:26:37.050Z,10.89
2022-11-05T08:29:56.650Z,10.79
2022-11-05T08:32:25.849Z,9.11
2022-11-05T08:34:54.051Z,12.02
2022-11-05T08:37:22.069Z,13.57
2022-11-05T08:39:49.826Z,15.24
2022-11-05T08:45:54.886Z,18.60
2022-11-05T08:48:24.175Z,20.92
2022-11-05T08:50:51.946Z,22.20
2022-11-05T08:53:20.148Z,21.58
2022-11-05T08:55:49.974Z,22.29
2022-11-05T08:58:18.300Z,21.97
2022-11-05T09:00:48.339Z,21.95
2022-11-05T09:03:17.272Z,22.00
2022-11-05T09:05:46.508Z,22.05
2022-11-05T09:08:16.635Z,21.79
2022-11-05T09:10:45.571Z,21.60
2022-11-05T09:13:18.686Z,20.08
2022-11-05T09:15:47.539Z,22.09
2022-11-05T09:18:15.747Z,22.09
2022-11-05T09:20:46.562Z,22.13
2022-11-05T09:23:16.300Z,22.25
2022-11-05T09:25:44.714Z,22.41
2022-11-05T09:28:17.202Z,22.84
2022-11-05T09:30:47.639Z,22.84
2022-11-05T09:33:16.793Z,23.25
2022-11-05T09:35:44.660Z,23.17
2022-11-05T09:38:14.474Z,22.74
2022-11-05T09:40:49.946Z,21.72
2022-11-05T09:43:20.286Z,21.49
2022-11-05T09:45:51.303Z,20.96
2022-11-05T09:48:25.789Z,19.96
2022-11-05T09:50:54.711Z,20.20
2022-11-05T09:53:24.379Z,18.01
2022-11-05T09:55:57.298Z,18.63
2022-11-05T09:58:35.974Z,17.41
2022-11-05T10:01:07.567Z,17.70
2022-11-05T10:03:40.322Z,16.92
2022-11-05T10:06:10.428Z,18.52
2022-11-05T10:08:43.399Z,18.27
2022-11-05T10:11:18.185Z,19.71
2022-11-05T10:13:49.224Z,19.58
2022-11-05T10:16:25.056Z,18.53
2022-11-05T10:18:56.098Z,18.33
2022-11-05T10:21:44.173Z,19.42
2022-11-05T10:24:15.552Z,19.72
2022-11-05T10:26:48.714Z,18.71
2022-11-05T10:46:58.525Z,20.81
2022-11-05T10:49:43.625Z,23.59
2022-11-05T10:52:24.499Z,26.31
2022-11-05T10:54:54.576Z,27.06
2022-11-05T10:57:33.101Z,26.98
2022-11-05T11:00:28.235Z,27.05
2022-11-05T11:03:00.381Z,26.77
2022-11-05T11:05:32.655Z,25.38
2022-11-05T11:08:04.813Z,23.80
2022-11-05T11:10:42.422Z,22.59
2022-11-05T11:13:20.973Z,21.39
2022-11-05T11:16:37.420Z,19.84
2022-11-05T11:19:25.558Z,19.63
2022-11-05T11:22:21.732Z,19.37
2022-11-05T11:24:53.878Z,19.68
2022-11-05T11:27:29.077Z,20.40
2022-11-05T11:29:59.915Z,20.99
2022-11-05T11:32:33.609Z,21.48
2022-11-05T11:35:04.068Z,21.62
2022-11-05T11:37:35.440Z,21.69
2022-11-05T11:40:10.001Z,22.02
2022-11-05T11:42:41.342Z,21.64
2022-11-05T11:45:28.243Z,23.27
2022-11-05T11:47:57.808Z,23.63
2022-11-05T11:50:51.836Z,24.44
2022-11-05T11:53:34.705Z,23.16
2022-11-05T11:56:15.708Z,22.11
2022-11-05T11:58:49.299Z,20.14
2022-11-05T12:02:14.295Z,20.03
2022-11-05T12:04:59.293Z,19.87
2022-11-05T12:12:10.765Z,19.38
2022-11-05T12:22:22.444Z,14.45
2022-11-05T12:25:15.159Z,16.34
2022-11-05T12:28:01.273Z,16.02
2022-11-05T12:30:38.373Z,15.79
2022-11-05T12:33:38.593Z,14.49
2022-11-05T12:36:32.953Z,14.38
2022-11-05T12:39:30.846Z,12.89
2022-11-05T12:42:23.665Z,15.45
2022-11-05T12:45:20.550Z,15.54
2022-11-05T12:48:37.084Z,13.20
2022-11-05T12:51:40.266Z,14.89
2022-11-05T12:54:22.411Z,15.29
2022-11-05T12:57:09.423Z,14.27
2022-11-05T12:59:45.324Z,14.84
2022-11-05T13:02:36.991Z,12.81
2022-11-05T13:05:13.551Z,14.72
2022-11-05T13:07:53.546Z,11.93
2022-11-05T13:10:27.592Z,14.47
2022-11-05T13:13:05.666Z,12.20
2022-11-05T13:15:50.317Z,11.63
2022-11-05T13:20:16.052Z,11.80
2022-11-05T13:23:33.587Z,13.78
2022-11-05T13:26:08.080Z,13.05
2022-11-05T13:28:45.343Z,13.15
2022-11-05T13:31:19.712Z,13.09
2022-11-05T13:33:50.399Z,13.99
2022-11-05T13:36:41.403Z,11.63
2022-11-05T13:40:19.736Z,11.33
2022-11-05T13:43:47.246Z,11.80
2022-11-05T13:47:13.388Z,13.36
2022-11-05T13:50:39.850Z,12.60
2022-11-05T13:54:25.511Z,13.92
2022-11-05T13:57:11.378Z,11.92
2022-11-05T13:59:55.463Z,13.60
2022-11-05T14:02:28.146Z,11.19
2022-11-05T14:05:08.699Z,13.01
2022-11-05T14:07:49.632Z,12.37
2022-11-05T14:10:33.174Z,13.63
2022-11-05T14:13:16.239Z,13.14
2022-11-05T14:15:56.627Z,11.70
2022-11-05T14:18:41.306Z,12.43
2022-11-05T14:21:33.008Z,11.24
2022-11-05T14:24:19.351Z,10.92
2022-11-05T14:27:25.893Z,12.61
2022-11-05T14:29:54.070Z,10.33
2022-11-05T14:32:27.081Z,10.72
2022-11-05T14:35:07.207Z,9.95
2022-11-05T14:38:15.681Z,10.97
2022-11-05T14:41:01.527Z,12.31
2022-11-05T14:48:25.800Z,12.17
2022-11-05T14:51:25.618Z,12.12
2022-11-05T15:00:15.725Z,9.33
2022-11-05T15:03:26.331Z,11.80
2022-11-05T15:07:14.666Z,10.05
2022-11-05T15:10:38.754Z,9.76
2022-11-05T15:13:48.519Z,11.45
2022-11-05T15:16:35.564Z,11.29
2022-11-05T15:22:37.420Z,9.79
2022-11-05T15:25:17.346Z,9.33
2022-11-05T15:28:22.158Z,7.96
2022-11-05T15:31:06.143Z,10.96
2022-11-05T15:33:35.621Z,10.92
2022-11-05T15:36:11.523Z,8.34
2022-11-05T15:38:56.660Z,8.54
2022-11-05T15:41:35.061Z,7.76
2022-11-05T15:44:04.413Z,10.74
2022-11-05T15:46:32.745Z,10.11
2022-11-05T15:49:06.927Z,7.94
2022-11-05T15:51:38.706Z,10.20
2022-11-05T15:56:58.035Z,10.40
2022-11-05T15:59:28.747Z,8.58
2022-11-05T16:02:03.272Z,10.28
2022-11-05T16:04:34.762Z,10.21
2022-11-05T16:07:11.011Z,10.06
2022-11-05T16:09:53.151Z,10.05
2022-11-05T16:12:35.688Z,9.20
2022-11-05T16:15:20.214Z,9.57
2022-11-05T16:17:51.921Z,9.98
2022-11-05T16:20:29.195Z,9.84
2022-11-05T16:23:00.245Z,9.88
2022-11-05T16:25:33.278Z,9.40
2022-11-05T16:28:01.756Z,9.86
2022-11-05T16:30:30.040Z,9.83
2022-11-05T16:33:04.622Z,9.79
2022-11-05T16:35:34.184Z,9.75
2022-11-05T16:38:02.986Z,9.57
2022-11-05T16:40:33.814Z,9.69
2022-11-05T16:43:18.097Z,9.64
2022-11-05T16:46:03.554Z,9.63
2022-11-05T16:48:52.480Z,9.43
2022-11-05T16:51:27.379Z,9.52
2022-11-05T16:53:55.432Z,9.48
2022-11-05T16:56:23.904Z,9.25
2022-11-05T16:58:53.304Z,9.38
2022-11-05T17:01:25.892Z,9.04
2022-11-05T17:06:58.879Z,8.83
2022-11-05T17:09:39.439Z,8.87
2022-11-05T17:12:11.266Z,9.18
2022-11-05T17:18:39.381Z,9.02
2022-11-05T17:21:33.299Z,9.05
2022-11-05T17:24:16.784Z,8.84
2022-11-05T17:26:50.835Z,8.70
2022-11-05T17:29:25.618Z,9.01
2022-11-05T17:51:52.623Z,8.86
2022-11-05T17:54:59.211Z,8.86
2022-11-05T17:57:30.161Z,8.16
2022-11-05T18:00:57.026Z,8.20
2022-11-05T18:03:36.696Z,8.72
2022-11-05T18:06:40.450Z,8.60
2022-11-05T18:09:52.160Z,8.77
2022-11-05T18:12:23.271Z,8.68
2022-11-05T18:14:53.666Z,7.55
2022-11-05T18:17:44.631Z,8.72
2022-11-05T18:20:40.153Z,8.74
2022-11-05T18:23:09.630Z,8.65
2022-11-05T18:25:53.040Z,8.71
2022-11-05T18:29:24.438Z,8.70
2022-11-05T18:33:52.848Z,8.69
2022-11-05T18:36:33.608Z,8.29
2022-11-05T18:39:09.013Z,8.67
2022-11-05T18:41:39.551Z,8.68
2022-11-05T18:44:22.969Z,6.78
2022-11-05T18:46:58.103Z,7.98
2022-11-05T18:49:31.982Z,6.48
2022-11-05T18:52:01.886Z,8.04
2022-11-05T18:54:31.203Z,8.63
2022-11-05T18:57:22.163Z,8.67
2022-11-05T19:00:05.665Z,8.51
2022-11-05T19:02:35.159Z,8.48
2022-11-05T19:05:28.055Z,8.55
2022-11-05T19:07:57.102Z,8.64
2022-11-05T19:10:31.730Z,8.76
2022-11-05T19:13:05.404Z,8.35
2022-11-05T19:16:08.391Z,8.75
2022-11-05T19:18:39.952Z,8.80
2022-11-05T19:29:23.870Z,8.65
2022-11-05T19:31:51.689Z,8.60
2022-11-05T19:34:20.530Z,8.63
2022-11-05T19:36:48.427Z,8.59
2022-11-05T19:39:16.519Z,8.44
2022-11-05T19:41:44.477Z,8.52
2022-11-05T19:44:12.449Z,8.58
2022-11-05T19:46:41.612Z,8.57
2022-11-05T19:49:09.419Z,8.40
2022-11-05T19:51:37.778Z,8.45
2022-11-05T19:54:06.213Z,8.56
2022-11-05T19:56:36.684Z,8.57
2022-11-05T19:59:06.466Z,8.56
2022-11-05T20:01:37.025Z,8.58
2022-11-05T20:04:06.639Z,8.60
2022-11-05T20:06:38.537Z,8.30
2022-11-05T20:09:22.135Z,8.17
2022-11-05T20:11:50.884Z,8.32
2022-11-05T20:14:18.780Z,8.45
2022-11-05T20:16:47.785Z,8.63
2022-11-05T20:19:19.360Z,8.50
2022-11-05T20:21:48.046Z,8.50
2022-11-05T20:24:22.465Z,8.59
2022-11-05T20:26:51.950Z,8.55
2022-11-05T20:29:19.797Z,8.41
2022-11-05T20:31:48.029Z,8.39
2022-11-05T20:34:17.125Z,8.34
2022-11-05T20:36:45.413Z,8.48
2022-11-05T20:39:13.192Z,8.18
2022-11-05T20:41:41.147Z,8.47
2022-11-05T20:44:09.101Z,8.28
2022-11-05T20:46:36.976Z,7.97
2022-11-05T20:49:04.704Z,8.37
2022-11-05T21:00:34.560Z,8.04
2022-11-05T21:03:02.510Z,7.96
2022-11-05T21:05:35.295Z,7.83
2022-11-05T21:08:41.966Z,7.10
2022-11-05T21:11:51.364Z,7.19
2022-11-05T21:17:59.092Z,7.73
2022-11-05T21:31:54.829Z,7.48
2022-11-05T21:36:06.905Z,7.39
2022-11-05T21:38:34.727Z,7.34
2022-11-05T21:41:11.390Z,7.21
2022-11-05T21:43:42.988Z,7.32
2022-11-05T21:47:13.668Z,7.33
2022-11-05T21:49:41.695Z,7.31
2022-11-05T21:52:29.110Z,7.27
2022-11-05T21:55:14.456Z,7.28
2022-11-05T21:58:13.006Z,7.25
2022-11-05T22:00:42.794Z,7.22
2022-11-05T22:04:06.396Z,7.18
2022-11-05T22:06:36.220Z,7.19
2022-11-05T22:09:24.388Z,7.20
2022-11-05T22:12:41.225Z,7.15
2022-11-05T22:15:31.109Z,7.22
2022-11-05T22:21:55.879Z,7.15
2022-11-05T22:24:32.008Z,6.24
2022-11-05T22:30:39.364Z,7.26
2022-11-05T22:33:07.364Z,7.21
2022-11-05T22:35:36.603Z,7.11
2022-11-05T22:38:04.888Z,7.11
2022-11-05T22:40:35.784Z,6.97
2022-11-05T22:43:47.416Z,6.97
2022-11-05T22:46:38.922Z,6.79
2022-11-05T22:49:08.047Z,6.56
2022-11-05T22:51:39.204Z,6.68
2022-11-05T22:54:07.871Z,6.41
2022-11-05T22:56:38.454Z,6.55
2022-11-05T22:59:07.874Z,6.42
2022-11-05T23:01:36.972Z,6.47
2022-11-05T23:04:10.338Z,6.45
2022-11-05T23:07:28.179Z,6.26
2022-11-05T23:20:06.354Z,6.02
2022-11-05T23:54:29.364Z,5.72
2022-11-05T23:56:57.179Z,5.73
2022-11-05T23:59:24.973Z,5.75
